Time;durP1;ratioP1;P1;durP2;ratioP2;P2;SDS_P1;SDS_P2;PMS_P1;PMS_P2;Temp;Humidity;BMP_temperature;BMP_pressure;BME280_temperature;BME280_humidity;BME280_pressure;Samples;Min_cycle;Max_cycle;Signal;HPM_P1;HPM_P2
2023/06/24 00:00:07;;;;;;;4.90;4.50;;;22.90;67.60;;;;;;4989758;28;20227;-74
2023/06/24 00:02:37;;;;;;;5.13;4.63;;;22.90;67.70;;;;;;5005476;28;20640;-74
2023/06/24 00:05:05;;;;;;;5.90;4.70;;;22.80;67.90;;;;;;5000948;28;20210;-74
2023/06/24 00:07:32;;;;;;;5.67;4.70;;;22.80;67.90;;;;;;5001067;28;20285;-72
2023/06/24 00:10:03;;;;;;;5.13;4.63;;;22.80;67.90;;;;;;5006632;28;20705;-75
2023/06/24 00:12:30;;;;;;;5.47;4.87;;;22.70;68.00;;;;;;5002358;28;20200;-74
2023/06/24 00:15:01;;;;;;;7.60;5.07;;;22.70;68.00;;;;;;4999284;28;20231;-75
2023/06/24 00:17:28;;;;;;;4.93;4.47;;;22.70;68.30;;;;;;5004424;28;20199;-75
2023/06/24 00:19:55;;;;;;;5.00;4.47;;;22.60;68.20;;;;;;5001059;28;20196;-75
2023/06/24 00:22:28;;;;;;;5.97;4.93;;;22.60;68.40;;;;;;5000042;28;20211;-76
2023/06/24 00:24:55;;;;;;;5.43;4.93;;;22.60;68.30;;;;;;5002264;28;20529;-75
2023/06/24 00:27:22;;;;;;;6.13;5.53;;;22.60;68.10;;;;;;5008008;28;20682;-77
2023/06/24 00:29:50;;;;;;;5.60;5.10;;;22.50;68.10;;;;;;5004778;28;20215;-76
2023/06/24 00:32:18;;;;;;;5.60;4.90;;;22.50;68.30;;;;;;5002442;28;20202;-75
2023/06/24 00:34:47;;;;;;;5.47;4.90;;;22.50;68.40;;;;;;5013961;28;20227;-75
2023/06/24 00:37:15;;;;;;;5.50;4.97;;;22.40;68.20;;;;;;5007478;28;20257;-75
2023/06/24 00:39:42;;;;;;;5.20;4.67;;;22.40;68.30;;;;;;5003745;28;20258;-76
2023/06/24 00:42:09;;;;;;;5.40;4.90;;;22.30;68.20;;;;;;5010032;28;20664;-75
2023/06/24 00:44:39;;;;;;;6.43;5.03;;;22.30;68.50;;;;;;5012078;28;20312;-75
2023/06/24 00:47:08;;;;;;;5.73;5.23;;;22.30;68.70;;;;;;5008005;28;20215;-74
2023/06/24 00:49:38;;;;;;;6.07;5.20;;;22.30;68.80;;;;;;4984100;28;20715;-74
2023/06/24 00:52:06;;;;;;;4.90;4.40;;;22.30;69.10;;;;;;5002356;28;20504;-73
2023/06/24 00:54:33;;;;;;;5.80;5.20;;;22.20;68.80;;;;;;4999740;28;20227;-74
2023/06/24 00:57:02;;;;;;;5.67;5.17;;;22.20;68.90;;;;;;4998370;28;20698;-75
2023/06/24 00:59:31;;;;;;;5.70;5.20;;;22.20;69.10;;;;;;4997183;28;20215;-75
2023/06/24 01:02:04;;;;;;;5.37;4.87;;;22.20;69.10;;;;;;5003181;28;20619;-74
2023/06/24 01:04:33;;;;;;;6.57;4.57;;;22.20;69.30;;;;;;5001710;28;20561;-73
2023/06/24 01:07:06;;;;;;;5.27;4.47;;;22.10;69.70;;;;;;5000252;28;20195;-71
2023/06/24 01:09:33;;;;;;;5.10;4.60;;;22.10;69.80;;;;;;5013183;28;20210;-73
2023/06/24 01:12:03;;;;;;;6.03;5.03;;;22.10;69.80;;;;;;5012615;28;20213;-73
2023/06/24 01:14:30;;;;;;;7.07;4.87;;;22.10;70.10;;;;;;5013077;28;20593;-75
2023/06/24 01:17:07;;;;;;;6.13;5.63;;;22.00;70.00;;;;;;4993935;28;20207;-77
2023/06/24 01:20:04;;;;;;;5.80;5.23;;;22.00;70.20;;;;;;5013088;28;20254;-76
2023/06/24 01:23:07;;;;;;;5.60;4.70;;;22.00;70.40;;;;;;5008853;28;20239;-74
2023/06/24 01:26:02;;;;;;;7.53;5.40;;;22.00;70.80;;;;;;4993202;28;20204;-75
2023/06/24 01:28:50;;;;;;;5.23;4.80;;;21.90;70.50;;;;;;4993129;28;20239;-75
2023/06/24 01:31:42;;;;;;;5.47;4.97;;;21.90;70.40;;;;;;4993042;28;20203;-75
2023/06/24 01:34:19;;;;;;;6.13;5.53;;;21.90;70.80;;;;;;4995204;28;20235;-74
2023/06/24 01:36:55;;;;;;;5.33;4.70;;;21.80;70.50;;;;;;5002134;28;20199;-75
2023/06/24 01:39:32;;;;;;;5.53;4.90;;;21.80;70.80;;;;;;4999951;28;20207;-74
2023/06/24 01:42:06;;;;;;;5.83;5.33;;;21.80;70.70;;;;;;5000002;28;20598;-74
2023/06/24 01:44:34;;;;;;;5.43;4.93;;;21.70;70.70;;;;;;4974623;28;20211;-73
2023/06/24 01:47:07;;;;;;;5.13;4.63;;;21.70;70.60;;;;;;4997471;28;20216;-74
2023/06/24 01:49:43;;;;;;;5.43;4.93;;;21.70;71.10;;;;;;4999239;28;20226;-74
2023/06/24 01:52:11;;;;;;;7.47;5.57;;;21.70;71.10;;;;;;5000081;28;20920;-74
2023/06/24 01:54:43;;;;;;;6.67;5.17;;;21.70;70.70;;;;;;5000726;28;20222;-74
2023/06/24 01:57:15;;;;;;;6.60;5.03;;;21.60;70.70;;;;;;5001045;28;20199;-74
2023/06/24 01:59:45;;;;;;;5.73;5.03;;;21.60;70.70;;;;;;4999958;28;20346;-74
2023/06/24 02:02:20;;;;;;;5.70;5.20;;;21.50;70.70;;;;;;5000471;28;20208;-75
2023/06/24 02:04:53;;;;;;;5.50;4.83;;;21.50;71.10;;;;;;5001740;28;20199;-75
2023/06/24 02:07:21;;;;;;;6.97;5.10;;;21.40;71.10;;;;;;4999321;28;20204;-74
2023/06/24 02:09:51;;;;;;;8.03;5.27;;;21.40;71.10;;;;;;4982226;28;20187;-74
2023/06/24 02:12:18;;;;;;;5.53;5.03;;;21.40;71.20;;;;;;5000127;28;20227;-75
2023/06/24 02:14:46;;;;;;;5.70;5.20;;;21.40;71.30;;;;;;4999730;28;20228;-75
2023/06/24 02:17:17;;;;;;;6.30;5.60;;;21.30;71.40;;;;;;4983864;28;20207;-75
2023/06/24 02:19:46;;;;;;;11.93;6.17;;;21.30;71.50;;;;;;4997972;28;20223;-75
2023/06/24 02:22:21;;;;;;;7.40;5.57;;;21.30;71.50;;;;;;5002966;28;20241;-74
2023/06/24 02:24:53;;;;;;;7.83;5.23;;;21.20;71.50;;;;;;5001857;28;20191;-75
2023/06/24 02:27:21;;;;;;;10.53;5.93;;;21.20;71.50;;;;;;4999239;28;20703;-74
2023/06/24 02:29:52;;;;;;;7.23;5.13;;;21.20;71.50;;;;;;5000131;28;20295;-75
2023/06/24 02:32:19;;;;;;;9.67;5.87;;;21.10;71.60;;;;;;5008343;28;20203;-75
2023/06/24 02:34:47;;;;;;;7.17;5.10;;;21.10;71.70;;;;;;4998058;28;20224;-75
2023/06/24 02:37:17;;;;;;;10.40;5.83;;;21.10;71.90;;;;;;4997220;28;20216;-75
2023/06/24 02:39:45;;;;;;;11.23;5.73;;;21.10;72.00;;;;;;4978885;28;20216;-75
2023/06/24 02:42:12;;;;;;;10.23;5.30;;;21.00;72.10;;;;;;5006759;28;20210;-75
2023/06/24 02:44:42;;;;;;;9.07;5.63;;;21.00;72.10;;;;;;5003777;28;20211;-75
2023/06/24 02:47:12;;;;;;;9.87;5.63;;;21.00;72.20;;;;;;5002146;28;20238;-76
2023/06/24 02:49:43;;;;;;;9.93;5.20;;;21.00;72.20;;;;;;5000659;28;20306;-74
2023/06/24 02:52:11;;;;;;;11.70;5.93;;;21.00;72.30;;;;;;4998593;28;20207;-75
2023/06/24 02:54:45;;;;;;;11.87;6.40;;;21.00;72.10;;;;;;4995978;28;20218;-75
2023/06/24 02:57:15;;;;;;;8.73;5.90;;;21.00;72.50;;;;;;5003363;28;20204;-75
2023/06/24 02:59:42;;;;;;;7.40;5.67;;;21.00;72.20;;;;;;5002604;28;20220;-75
2023/06/24 03:02:10;;;;;;;9.90;6.07;;;21.00;72.10;;;;;;5002838;28;20203;-77
2023/06/24 03:04:43;;;;;;;10.73;6.40;;;20.90;72.00;;;;;;5008021;28;20203;-76
2023/06/24 03:07:22;;;;;;;9.73;5.87;;;20.90;72.30;;;;;;4985086;28;20227;-76
2023/06/24 03:09:55;;;;;;;11.27;5.63;;;20.90;72.20;;;;;;4996744;28;20687;-76
2023/06/24 03:12:21;;;;;;;6.83;5.30;;;20.90;72.30;;;;;;5014572;28;20211;-75
2023/06/24 03:14:54;;;;;;;13.03;5.37;;;20.90;72.10;;;;;;5015442;28;20211;-75
2023/06/24 03:17:21;;;;;;;10.03;5.43;;;20.80;72.20;;;;;;5014772;28;20283;-75
2023/06/24 03:19:48;;;;;;;7.03;5.67;;;20.70;72.30;;;;;;5014880;28;20241;-74
2023/06/24 03:22:18;;;;;;;12.67;6.37;;;20.80;72.40;;;;;;5013625;28;20207;-75
2023/06/24 03:24:45;;;;;;;11.27;5.90;;;20.70;72.30;;;;;;5008710;28;20199;-74
2023/06/24 03:27:12;;;;;;;8.33;5.67;;;20.70;72.40;;;;;;5014271;28;20730;-75
2023/06/24 03:29:41;;;;;;;7.47;5.70;;;20.70;72.50;;;;;;5013749;28;20207;-73
2023/06/24 03:32:08;;;;;;;8.13;5.67;;;20.70;72.60;;;;;;5024405;28;20206;-74
2023/06/24 03:34:35;;;;;;;9.53;5.47;;;20.70;72.70;;;;;;5033232;28;20709;-74
2023/06/24 03:37:04;;;;;;;8.03;5.57;;;20.70;72.80;;;;;;4967049;28;20220;-74
2023/06/24 03:39:34;;;;;;;11.17;6.00;;;20.70;72.90;;;;;;5001447;28;20251;-76
2023/06/24 03:42:01;;;;;;;14.50;5.83;;;20.60;73.00;;;;;;4997905;28;20207;-75
2023/06/24 03:44:38;;;;;;;11.17;5.90;;;20.60;72.80;;;;;;4999528;28;20302;-75
2023/06/24 03:47:09;;;;;;;12.03;5.40;;;20.60;73.20;;;;;;4998460;28;20246;-75
2023/06/24 03:49:35;;;;;;;15.63;6.50;;;20.60;73.00;;;;;;5003038;28;20223;-75
2023/06/24 03:52:03;;;;;;;10.60;5.80;;;20.60;73.00;;;;;;5004206;28;20560;-74
2023/06/24 03:54:35;;;;;;;10.77;6.03;;;20.60;73.00;;;;;;5000679;28;20314;-75
2023/06/24 03:57:02;;;;;;;10.53;5.83;;;20.60;73.20;;;;;;4997530;28;20266;-74
2023/06/24 03:59:28;;;;;;;8.30;5.70;;;20.60;73.10;;;;;;5002947;28;20216;-76
2023/06/24 04:01:58;;;;;;;10.47;5.87;;;20.60;73.90;;;;;;5008654;28;20237;-76
2023/06/24 04:04:25;;;;;;;11.93;5.97;;;20.60;73.30;;;;;;5012819;28;20200;-78
2023/06/24 04:06:52;;;;;;;9.07;6.00;;;20.60;73.40;;;;;;5009245;28;20295;-78
2023/06/24 04:09:22;;;;;;;10.43;6.43;;;20.60;73.40;;;;;;5005183;28;20721;-76
2023/06/24 04:11:50;;;;;;;11.00;5.47;;;20.60;73.40;;;;;;5004390;28;20195;-76
2023/06/24 04:14:27;;;;;;;6.00;5.40;;;20.60;73.40;;;;;;5002092;28;21683;-74
2023/06/24 04:17:00;;;;;;;8.37;5.80;;;20.60;73.20;;;;;;5009888;28;20246;-74
2023/06/24 04:19:26;;;;;;;5.50;5.00;;;20.60;72.90;;;;;;5002289;28;20227;-74
2023/06/24 04:21:59;;;;;;;6.73;5.23;;;20.50;72.90;;;;;;5003603;28;20670;-74
2023/06/24 04:24:26;;;;;;;6.63;5.80;;;20.50;72.80;;;;;;5002386;28;20207;-74
2023/06/24 04:27:00;;;;;;;9.30;5.10;;;20.50;73.20;;;;;;5010129;28;20293;-74
2023/06/24 04:29:27;;;;;;;8.83;5.00;;;20.60;73.20;;;;;;5009789;28;20233;-74
2023/06/24 04:32:00;;;;;;;8.73;5.37;;;20.60;73.30;;;;;;5001985;28;20680;-74
2023/06/24 04:34:27;;;;;;;5.90;5.20;;;20.60;73.40;;;;;;4997383;28;20196;-74
2023/06/24 04:36:53;;;;;;;9.23;5.50;;;20.60;74.30;;;;;;4999554;28;20231;-74
2023/06/24 04:39:23;;;;;;;8.43;5.17;;;20.60;73.70;;;;;;5000060;28;20626;-74
2023/06/24 04:41:50;;;;;;;5.77;4.83;;;20.70;74.10;;;;;;4999721;28;20200;-73
2023/06/24 04:44:22;;;;;;;7.53;5.83;;;20.70;74.40;;;;;;5001724;28;20235;-73
2023/06/24 04:46:48;;;;;;;10.40;6.80;;;20.70;74.70;;;;;;4999493;28;20654;-75
2023/06/24 04:49:15;;;;;;;8.67;6.40;;;20.80;75.30;;;;;;5001233;28;20218;-74
2023/06/24 04:51:48;;;;;;;12.33;6.43;;;20.80;75.10;;;;;;5005015;28;20199;-74
2023/06/24 04:54:15;;;;;;;9.87;6.00;;;20.80;75.30;;;;;;5011753;28;20209;-74
2023/06/24 04:56:42;;;;;;;7.87;5.80;;;20.90;75.40;;;;;;5000762;28;20232;-74
2023/06/24 04:59:11;;;;;;;6.40;5.17;;;20.90;75.30;;;;;;4985756;28;20608;-75
2023/06/24 05:01:39;;;;;;;6.23;5.43;;;20.90;75.10;;;;;;5000737;28;20514;-75
2023/06/24 05:04:06;;;;;;;7.80;5.77;;;21.00;75.00;;;;;;5001915;28;20235;-80
2023/06/24 05:06:35;;;;;;;9.43;5.73;;;21.00;74.80;;;;;;5000370;28;20272;-75
2023/06/24 05:09:02;;;;;;;5.83;5.03;;;21.10;75.00;;;;;;5020164;28;20203;-74
2023/06/24 05:11:28;;;;;;;5.40;4.90;;;21.10;74.60;;;;;;5031710;28;20195;-74
2023/06/24 05:14:01;;;;;;;6.23;5.30;;;21.20;74.50;;;;;;5010787;28;20587;-74
2023/06/24 05:16:28;;;;;;;4.60;4.20;;;21.20;74.90;;;;;;4992916;28;20231;-74
2023/06/24 05:18:59;;;;;;;6.10;4.87;;;21.30;75.10;;;;;;5008554;28;20233;-74
2023/06/24 05:21:25;;;;;;;5.27;4.77;;;21.40;75.00;;;;;;5012912;28;20219;-74
2023/06/24 05:23:52;;;;;;;5.70;4.30;;;21.40;74.30;;;;;;5012080;28;20366;-76
2023/06/24 05:26:25;;;;;;;5.20;4.70;;;21.50;74.30;;;;;;5012767;28;20310;-73
2023/06/24 05:28:52;;;;;;;5.60;4.43;;;21.60;74.20;;;;;;5012368;28;20720;-75
2023/06/24 05:31:22;;;;;;;5.30;4.50;;;21.70;72.50;;;;;;5012333;28;20317;-74
2023/06/24 05:33:49;;;;;;;5.93;5.07;;;21.70;72.00;;;;;;5012811;28;20207;-75
2023/06/24 05:36:17;;;;;;;7.43;5.10;;;21.80;71.60;;;;;;5003457;28;20221;-75
2023/06/24 05:38:48;;;;;;;5.17;4.33;;;21.80;71.00;;;;;;5000928;28;20220;-75
2023/06/24 05:41:15;;;;;;;4.93;4.43;;;21.80;71.10;;;;;;5004684;28;20651;-74
2023/06/24 05:43:47;;;;;;;5.00;4.50;;;21.80;70.70;;;;;;4993787;28;20671;-74
2023/06/24 05:46:14;;;;;;;5.20;4.70;;;21.90;70.50;;;;;;4982080;28;20195;-74
2023/06/24 05:48:42;;;;;;;4.63;4.20;;;22.00;70.20;;;;;;5000850;28;20206;-74
2023/06/24 05:51:12;;;;;;;5.90;4.50;;;22.00;70.30;;;;;;4998474;28;20231;-74
2023/06/24 05:53:41;;;;;;;4.50;4.10;;;22.10;69.90;;;;;;5004127;28;20206;-74
2023/06/24 05:56:14;;;;;;;5.83;4.13;;;22.10;69.80;;;;;;5008730;28;20223;-75
2023/06/24 05:58:40;;;;;;;4.70;4.20;;;22.10;69.20;;;;;;4996149;28;20223;-73
2023/06/24 06:01:11;;;;;;;4.57;4.17;;;22.20;68.80;;;;;;4998407;28;20212;-73
2023/06/24 06:03:38;;;;;;;5.73;4.00;;;22.30;68.50;;;;;;4992442;28;20209;-74
2023/06/24 06:06:05;;;;;;;5.07;4.13;;;22.30;68.50;;;;;;5003212;28;20203;-74
2023/06/24 06:08:35;;;;;;;4.73;4.23;;;22.50;68.20;;;;;;5001561;28;20302;-74
2023/06/24 06:11:03;;;;;;;4.87;4.47;;;22.60;68.00;;;;;;5001205;28;20664;-74
2023/06/24 06:13:30;;;;;;;5.07;4.20;;;22.70;67.90;;;;;;4982416;28;20212;-75
2023/06/24 06:16:00;;;;;;;4.67;4.27;;;22.70;67.70;;;;;;4999540;28;20207;-75
2023/06/24 06:18:27;;;;;;;4.47;4.10;;;22.80;67.60;;;;;;4999459;28;20239;-78
2023/06/24 06:20:54;;;;;;;4.07;3.70;;;23.00;67.90;;;;;;5003043;28;20313;-76
2023/06/24 06:23:23;;;;;;;4.53;4.13;;;23.10;67.00;;;;;;4997512;28;20207;-74
2023/06/24 06:25:51;;;;;;;6.33;4.20;;;23.10;66.60;;;;;;4999239;28;20199;-74
2023/06/24 06:28:19;;;;;;;4.10;3.77;;;23.10;66.60;;;;;;5008861;28;20206;-74
2023/06/24 06:30:47;;;;;;;5.37;4.03;;;23.20;66.40;;;;;;5002752;28;20573;-75
2023/06/24 06:33:14;;;;;;;4.40;4.00;;;23.30;66.70;;;;;;5000714;28;20592;-75
2023/06/24 06:35:41;;;;;;;5.23;3.90;;;23.40;66.80;;;;;;5003598;28;20207;-75
2023/06/24 06:38:11;;;;;;;4.27;3.87;;;23.60;66.70;;;;;;5009952;28;20226;-74
2023/06/24 06:40:37;;;;;;;4.80;4.40;;;23.60;66.70;;;;;;5004198;28;20223;-74
2023/06/24 06:43:04;;;;;;;4.80;4.00;;;23.70;66.80;;;;;;5004171;28;20202;-73
2023/06/24 06:45:35;;;;;;;5.00;4.20;;;23.80;65.60;;;;;;5002254;28;20735;-74
2023/06/24 06:48:06;;;;;;;4.63;4.23;;;23.80;65.20;;;;;;5004142;28;20187;-74
2023/06/24 06:50:33;;;;;;;4.30;3.80;;;23.90;65.50;;;;;;5001590;28;20649;-74
2023/06/24 06:53:00;;;;;;;5.20;4.30;;;24.00;65.20;;;;;;5004625;28;20222;-75
2023/06/24 06:55:30;;;;;;;6.50;3.93;;;24.10;65.10;;;;;;5003125;28;20203;-74
2023/06/24 06:57:57;;;;;;;5.97;4.30;;;24.20;64.50;;;;;;5003422;28;20228;-74
2023/06/24 07:00:23;;;;;;;4.83;4.20;;;24.20;64.50;;;;;;4996671;28;20227;-75
2023/06/24 07:02:57;;;;;;;5.10;4.00;;;24.30;64.30;;;;;;5003959;28;20195;-75
2023/06/24 07:05:24;;;;;;;4.50;4.00;;;24.40;64.80;;;;;;4999115;28;20227;-76
2023/06/24 07:08:00;;;;;;;5.33;4.37;;;24.50;64.50;;;;;;5001950;28;20204;-78
2023/06/24 07:10:27;;;;;;;5.23;4.10;;;24.60;63.80;;;;;;4998951;28;20226;-76
2023/06/24 07:12:58;;;;;;;4.27;3.87;;;24.70;64.20;;;;;;5006942;28;20199;-75
2023/06/24 07:15:26;;;;;;;4.53;4.13;;;24.90;64.30;;;;;;5015789;28;20550;-76
2023/06/24 07:17:55;;;;;;;5.30;4.60;;;24.90;63.30;;;;;;5015754;28;20273;-76
2023/06/24 07:20:29;;;;;;;5.20;3.97;;;25.00;63.20;;;;;;5015744;28;20234;-76
2023/06/24 07:22:56;;;;;;;4.03;3.67;;;25.10;63.20;;;;;;5015511;28;20862;-77
2023/06/24 07:25:23;;;;;;;5.37;4.87;;;25.30;63.40;;;;;;5015134;28;20230;-75
2023/06/24 07:27:50;;;;;;;5.37;4.20;;;25.40;62.10;;;;;;5014179;28;20199;-74
2023/06/24 07:30:16;;;;;;;4.70;4.30;;;25.50;62.00;;;;;;5013681;28;20703;-75
2023/06/24 07:32:43;;;;;;;4.20;3.80;;;25.50;61.70;;;;;;5015412;28;20717;-78
2023/06/24 07:35:16;;;;;;;4.60;4.03;;;25.70;61.50;;;;;;5014878;28;20203;-75
2023/06/24 07:37:42;;;;;;;4.30;3.47;;;25.80;61.90;;;;;;5012490;28;20807;-74
2023/06/24 07:40:11;;;;;;;4.50;3.87;;;25.90;63.00;;;;;;5002010;28;20230;-74
2023/06/24 07:42:38;;;;;;;4.70;4.20;;;26.00;62.50;;;;;;5002291;28;20205;-75
2023/06/24 07:45:06;;;;;;;5.47;4.37;;;26.10;62.60;;;;;;5003016;28;20311;-75
2023/06/24 07:47:36;;;;;;;4.50;4.10;;;26.20;62.20;;;;;;5002088;28;20215;-74
2023/06/24 07:50:03;;;;;;;4.57;4.13;;;26.30;63.80;;;;;;5002536;28;20214;-73
2023/06/24 07:52:31;;;;;;;5.97;4.07;;;26.40;63.20;;;;;;5009256;28;20594;-73
2023/06/24 07:55:00;;;;;;;4.40;4.00;;;26.50;63.50;;;;;;5000975;28;20714;-73
2023/06/24 07:57:28;;;;;;;5.37;4.13;;;26.60;62.10;;;;;;5003098;28;20238;-73
2023/06/24 07:59:54;;;;;;;4.93;4.43;;;26.70;62.30;;;;;;4988902;28;20231;-73
2023/06/24 08:02:24;;;;;;;5.40;4.00;;;26.80;61.20;;;;;;4993099;28;20271;-72
2023/06/24 08:04:51;;;;;;;4.47;4.07;;;26.80;59.90;;;;;;5008445;28;20212;-72
2023/06/24 08:07:17;;;;;;;4.37;3.97;;;26.90;59.50;;;;;;4969598;28;20220;-73
2023/06/24 08:09:47;;;;;;;5.37;4.00;;;27.00;59.40;;;;;;5005331;28;20293;-73
2023/06/24 08:12:14;;;;;;;7.97;4.53;;;27.00;58.70;;;;;;5008937;28;20211;-71
2023/06/24 08:14:41;;;;;;;6.77;4.23;;;27.10;60.40;;;;;;4994272;28;20215;-73
2023/06/24 08:17:14;;;;;;;4.87;3.90;;;27.20;60.10;;;;;;4993730;28;20228;-73
2023/06/24 08:19:41;;;;;;;5.33;4.13;;;27.40;60.20;;;;;;4993618;28;20667;-72
2023/06/24 08:22:11;;;;;;;3.83;3.30;;;27.50;59.50;;;;;;4994210;28;20208;-73
2023/06/24 08:24:38;;;;;;;4.13;3.73;;;27.50;59.40;;;;;;4994430;28;20534;-74
2023/06/24 08:27:08;;;;;;;5.73;4.50;;;27.60;59.00;;;;;;5006689;28;20215;-73
2023/06/24 08:29:37;;;;;;;3.90;3.60;;;27.70;59.10;;;;;;5012833;28;20231;-74
2023/06/24 08:32:06;;;;;;;4.37;3.70;;;27.80;58.00;;;;;;5010665;28;20572;-74
2023/06/24 08:34:36;;;;;;;4.10;3.70;;;27.90;57.30;;;;;;5009508;28;20238;-73
2023/06/24 08:37:03;;;;;;;4.50;3.80;;;28.00;57.30;;;;;;5011667;28;20207;-73
2023/06/24 08:39:30;;;;;;;4.30;3.90;;;28.10;57.80;;;;;;5014054;28;20203;-73
2023/06/24 08:42:00;;;;;;;3.93;3.53;;;28.10;57.40;;;;;;5012936;28;20623;-73
2023/06/24 08:44:28;;;;;;;3.67;3.20;;;28.20;57.40;;;;;;4996475;28;20206;-73
2023/06/24 08:46:55;;;;;;;4.23;3.50;;;28.30;56.50;;;;;;4992359;28;20238;-73
2023/06/24 08:49:30;;;;;;;4.20;3.80;;;28.50;55.80;;;;;;4997563;28;20212;-72
2023/06/24 08:52:03;;;;;;;5.27;3.50;;;28.50;55.30;;;;;;5006360;28;20190;-73
2023/06/24 08:54:38;;;;;;;4.33;3.73;;;28.60;55.60;;;;;;5012623;28;20213;-74
2023/06/24 08:57:07;;;;;;;3.80;3.40;;;28.60;52.80;;;;;;5013075;28;20190;-73
2023/06/24 08:59:38;;;;;;;4.77;4.13;;;28.60;54.00;;;;;;4995125;28;20225;-73
2023/06/24 09:02:05;;;;;;;5.20;3.43;;;28.70;54.00;;;;;;5006549;28;20229;-73
2023/06/24 09:04:38;;;;;;;4.47;4.07;;;28.80;54.20;;;;;;5013262;28;20540;-73
2023/06/24 09:07:05;;;;;;;4.20;3.80;;;28.90;52.80;;;;;;4997454;28;20199;-75
2023/06/24 09:09:32;;;;;;;3.97;3.57;;;28.90;52.00;;;;;;4993347;28;20662;-75
2023/06/24 09:12:04;;;;;;;4.10;3.77;;;28.90;51.30;;;;;;5000029;28;20705;-74
2023/06/24 09:14:38;;;;;;;5.43;3.70;;;28.80;50.70;;;;;;5011130;28;20197;-74
2023/06/24 09:17:06;;;;;;;4.80;3.60;;;28.90;52.50;;;;;;5011090;28;20243;-75
2023/06/24 09:19:39;;;;;;;4.13;3.40;;;29.00;52.60;;;;;;5000007;28;20230;-74
2023/06/24 09:22:08;;;;;;;3.80;3.40;;;29.10;52.60;;;;;;5004708;28;20313;-75
2023/06/24 09:24:38;;;;;;;7.03;4.17;;;29.20;52.50;;;;;;5009590;28;20221;-74
2023/06/24 09:27:06;;;;;;;4.27;3.87;;;29.30;52.60;;;;;;5006810;28;20226;-74
2023/06/24 09:29:36;;;;;;;4.37;3.70;;;29.40;52.80;;;;;;5011965;28;20215;-74
2023/06/24 09:32:07;;;;;;;4.10;3.70;;;29.50;51.40;;;;;;5011567;28;20203;-76
2023/06/24 09:34:35;;;;;;;3.87;3.40;;;29.60;50.90;;;;;;5010269;28;20218;-75
2023/06/24 09:37:04;;;;;;;3.60;3.30;;;29.70;48.80;;;;;;5012438;28;20217;-75
2023/06/24 09:39:37;;;;;;;3.40;3.10;;;29.70;49.70;;;;;;5001733;28;20203;-75
2023/06/24 09:42:07;;;;;;;4.10;3.67;;;29.80;51.00;;;;;;5001578;28;20211;-75
2023/06/24 09:44:34;;;;;;;4.30;3.63;;;29.90;49.50;;;;;;4991840;28;20266;-75
2023/06/24 09:47:06;;;;;;;3.60;3.30;;;29.90;49.00;;;;;;4993047;28;20203;-74
2023/06/24 09:49:33;;;;;;;3.53;3.13;;;30.10;48.10;;;;;;4997914;28;20618;-75
2023/06/24 09:52:03;;;;;;;3.80;3.50;;;30.10;48.90;;;;;;5002476;28;20214;-74
2023/06/24 09:54:30;;;;;;;3.37;3.07;;;30.20;48.30;;;;;;4991274;28;20269;-74
2023/06/24 09:57:02;;;;;;;3.63;3.33;;;30.30;47.40;;;;;;5003236;28;20196;-74
2023/06/24 09:59:33;;;;;;;3.60;3.30;;;30.40;47.80;;;;;;4992085;28;20230;-74
2023/06/24 10:02:00;;;;;;;3.30;3.00;;;30.40;46.70;;;;;;4994961;28;20203;-74
2023/06/24 10:04:29;;;;;;;3.77;2.83;;;30.50;47.30;;;;;;5012256;28;20226;-74
2023/06/24 10:06:56;;;;;;;3.30;3.00;;;30.60;47.60;;;;;;5016513;28;20241;-73
2023/06/24 10:09:23;;;;;;;3.37;3.07;;;30.60;47.20;;;;;;5012557;28;20200;-74
2023/06/24 10:11:50;;;;;;;3.30;2.87;;;30.70;46.50;;;;;;5010965;28;20191;-74
2023/06/24 10:14:18;;;;;;;3.13;2.87;;;30.80;46.80;;;;;;5015117;28;20322;-76
2023/06/24 10:16:45;;;;;;;3.23;2.93;;;30.90;45.80;;;;;;5013350;28;20718;-74
2023/06/24 10:19:21;;;;;;;3.43;3.13;;;31.00;46.20;;;;;;5014484;28;20211;-73
2023/06/24 10:21:52;;;;;;;3.73;3.17;;;31.00;45.30;;;;;;4998920;28;20226;-75
2023/06/24 10:24:32;;;;;;;3.00;2.73;;;31.10;45.00;;;;;;5011456;28;20261;-74
2023/06/24 10:27:03;;;;;;;3.93;3.53;;;31.00;43.00;;;;;;4995569;28;20208;-75
2023/06/24 10:29:35;;;;;;;3.30;3.00;;;31.10;44.20;;;;;;4998706;28;20199;-75
2023/06/24 10:32:06;;;;;;;3.90;3.50;;;31.10;43.80;;;;;;5007687;28;20220;-75
2023/06/24 10:34:35;;;;;;;3.40;3.10;;;31.20;44.50;;;;;;4996031;28;20188;-74
2023/06/24 10:37:10;;;;;;;3.50;3.20;;;31.20;44.40;;;;;;4995411;28;20683;-73
2023/06/24 10:39:46;;;;;;;3.67;3.03;;;31.20;45.10;;;;;;5004663;28;20218;-73
2023/06/24 10:42:37;;;;;;;3.57;3.10;;;31.30;45.70;;;;;;5014761;28;20233;-73
2023/06/24 10:45:15;;;;;;;3.73;3.43;;;31.40;44.60;;;;;;5010645;28;20207;-73
2023/06/24 10:47:45;;;;;;;4.20;3.80;;;31.40;43.10;;;;;;5015240;28;20218;-74
2023/06/24 10:50:14;;;;;;;3.60;3.30;;;31.40;44.50;;;;;;5014432;28;20261;-69
2023/06/24 10:52:44;;;;;;;3.73;3.43;;;31.50;42.60;;;;;;5015285;28;20213;-71
2023/06/24 10:55:11;;;;;;;3.47;3.17;;;31.30;41.90;;;;;;5007973;28;20214;-71
2023/06/24 10:57:38;;;;;;;4.03;3.20;;;31.30;44.00;;;;;;5011314;28;20288;-72
2023/06/24 11:00:06;;;;;;;3.50;3.20;;;31.50;42.90;;;;;;5015227;28;20211;-72
2023/06/24 11:02:33;;;;;;;3.23;2.93;;;31.60;44.10;;;;;;4995392;28;20583;-71
2023/06/24 11:05:02;;;;;;;3.87;3.50;;;31.70;44.20;;;;;;5003006;28;20211;-72
2023/06/24 11:07:31;;;;;;;3.30;3.00;;;31.90;43.80;;;;;;5014210;28;20230;-72
2023/06/24 11:10:02;;;;;;;3.13;2.87;;;32.10;43.30;;;;;;5010291;28;20210;-73
2023/06/24 11:12:32;;;;;;;3.70;3.40;;;32.00;42.10;;;;;;5000545;28;20252;-72
2023/06/24 11:14:59;;;;;;;3.70;3.40;;;32.10;41.90;;;;;;4992387;28;20227;-71
2023/06/24 11:17:26;;;;;;;3.57;3.20;;;32.10;41.60;;;;;;5008036;28;20200;-72
2023/06/24 11:19:54;;;;;;;3.97;3.07;;;32.10;41.40;;;;;;5025034;28;20249;-72
2023/06/24 11:22:21;;;;;;;3.50;3.17;;;32.20;43.00;;;;;;5024776;28;20220;-73
2023/06/24 11:24:48;;;;;;;3.40;3.10;;;32.30;42.90;;;;;;5013343;28;20214;-73
2023/06/24 11:27:16;;;;;;;3.33;3.03;;;32.40;42.80;;;;;;5013338;28;20194;-73
2023/06/24 11:29:45;;;;;;;3.57;3.27;;;32.50;42.50;;;;;;5013931;28;20230;-74
2023/06/24 11:32:12;;;;;;;3.40;3.10;;;32.60;42.90;;;;;;5013794;28;20765;-74
2023/06/24 11:34:39;;;;;;;3.40;3.10;;;32.70;42.30;;;;;;5019444;28;20206;-73
2023/06/24 11:37:11;;;;;;;3.20;2.90;;;32.70;41.60;;;;;;5033348;28;20211;-73
2023/06/24 11:39:38;;;;;;;3.73;3.40;;;32.80;41.00;;;;;;5010061;28;20219;-74
2023/06/24 11:42:08;;;;;;;5.37;3.60;;;32.70;40.10;;;;;;5008952;28;20230;-75
2023/06/24 11:44:41;;;;;;;3.40;3.10;;;32.70;41.40;;;;;;5008931;28;20221;-74
2023/06/24 11:47:10;;;;;;;3.87;3.57;;;32.80;41.70;;;;;;5000425;28;20205;-74
2023/06/24 11:49:51;;;;;;;3.93;3.53;;;32.90;41.80;;;;;;4993928;28;20226;-74
2023/06/24 11:52:18;;;;;;;3.90;3.50;;;33.00;40.50;;;;;;5011098;28;20254;-74
2023/06/24 11:54:45;;;;;;;3.70;3.40;;;33.00;40.50;;;;;;5007797;28;20209;-73
2023/06/24 11:57:12;;;;;;;3.67;3.37;;;33.10;39.00;;;;;;4993998;28;20321;-74
2023/06/24 11:59:40;;;;;;;3.57;3.27;;;32.90;37.40;;;;;;4993573;28;20209;-74
2023/06/24 12:02:07;;;;;;;3.43;3.13;;;32.80;37.60;;;;;;4999668;28;20309;-72
2023/06/24 12:04:36;;;;;;;3.70;3.40;;;32.70;37.30;;;;;;5013964;28;20230;-74
2023/06/24 12:07:04;;;;;;;3.30;3.00;;;32.40;37.00;;;;;;5013169;28;20315;-73
2023/06/24 12:09:31;;;;;;;3.40;3.10;;;32.30;38.00;;;;;;5003644;28;20215;-74
2023/06/24 12:11:58;;;;;;;3.57;3.23;;;32.40;40.00;;;;;;4994280;28;20202;-73
2023/06/24 12:14:24;;;;;;;3.10;2.90;;;32.40;38.90;;;;;;4994242;28;20324;-73
2023/06/24 12:16:53;;;;;;;3.60;3.30;;;32.50;38.50;;;;;;4993810;28;20213;-74
2023/06/24 12:19:20;;;;;;;3.30;3.00;;;32.70;39.10;;;;;;5008014;28;20217;-74
2023/06/24 12:21:47;;;;;;;3.37;3.07;;;32.80;38.70;;;;;;5017543;28;20220;-73
2023/06/24 12:24:14;;;;;;;2.90;2.70;;;32.90;38.50;;;;;;5014701;28;20210;-74
2023/06/24 12:26:41;;;;;;;3.27;2.97;;;33.00;37.70;;;;;;5011172;28;20208;-74
2023/06/24 12:29:08;;;;;;;3.37;3.07;;;33.10;37.10;;;;;;4994535;28;20206;-74
2023/06/24 12:31:34;;;;;;;3.23;2.60;;;33.20;38.20;;;;;;4993845;28;20214;-73
2023/06/24 12:34:03;;;;;;;3.47;3.17;;;33.30;37.60;;;;;;4994733;28;20201;-74
2023/06/24 12:36:29;;;;;;;3.70;3.40;;;33.40;37.00;;;;;;4995153;28;20193;-75
2023/06/24 12:38:56;;;;;;;3.37;2.73;;;33.50;36.80;;;;;;5010326;28;20214;-74
2023/06/24 12:41:23;;;;;;;5.93;3.90;;;33.60;36.80;;;;;;5006121;28;20239;-73
2023/06/24 12:43:50;;;;;;;3.60;3.30;;;33.60;37.50;;;;;;4999351;28;20215;-74
2023/06/24 12:46:17;;;;;;;3.57;3.27;;;33.60;36.30;;;;;;5002755;28;20228;-73
2023/06/24 12:48:44;;;;;;;3.57;3.27;;;33.60;37.40;;;;;;5012265;28;20230;-74
2023/06/24 12:51:12;;;;;;;3.50;3.20;;;33.60;37.50;;;;;;5001853;28;20221;-73
2023/06/24 12:53:39;;;;;;;3.50;3.20;;;33.60;37.00;;;;;;4992207;28;20703;-74
2023/06/24 12:56:06;;;;;;;3.40;3.10;;;33.70;37.30;;;;;;4994519;28;20202;-75